Byron, Minnesota
Current Conditions -  °F | °C
As of 11:33 PM on Saturday 25 Oct 2014 (Local Time) from K9MN Reporting Station
Clear Clear  
Wind Chill: 45°   Ceiling: Unl
Heat Index: 48°   Visibility: 10mi
Dew Point: 24°   Wind: 6mph
Humidity: 40%   Direction: 280°W
Pressure: 30.05"   Gusts: NA
Location:  44.03°N, 92.65°W
Report Text: K9MN 260433Z AUTO 28005KT 10SM CLR 09/M04 A3005 RMK AO1 T00881042
Loading
Personal Weather Stations






























Interactive Weather Map
Tropical Storm Tracking
New forecast layout! Learn more

10-Day Weather Forecast

Advertisements
Track Severe Weather on mobile